Data for 03/23/2008

Time Sea-Level Adjusted Pressure Absolute Pressure Temperature Relative Humidity Dew Point   
(mb) (inHg) (mb) (inHg) (C) (F) (%) (C) (F)
00:05 1028 30.36 857 25.31 -4.2 24.4 63 -10.2 13.6
00:10 1028 30.36 857 25.31 -4.4 24.1 64 -10.3 13.5
00:15 1028 30.36 857 25.31 -4.4 24 63 -10.4 13.3
00:20 1028 30.36 857 25.31 -4.5 23.8 63 -10.5 13.1
00:25 1028 30.36 857 25.31 -4.6 23.8 63 -10.6 13
00:30 1028 30.36 857 25.31 -4.6 23.7 63 -10.6 13
00:35 1028 30.36 857 25.31 -4.6 23.6 63 -10.6 13
00:40 1028 30.36 857 25.31 -4.8 23.4 64 -10.6 12.9
00:45 1028 30.36 857 25.31 -4.9 23.2 64 -10.7 12.7
00:50 1027 30.33 857 25.31 -4.8 23.4 64 -10.7 12.8
00:55 1027 30.33 857 25.31 -4.7 23.6 63 -10.7 12.8
01:00 1027 30.33 857 25.31 -4.7 23.5 63 -10.7 12.7
01:05 1027 30.33 856 25.28 -4.9 23.2 63 -10.8 12.5
01:10 1027 30.33 856 25.28 -5.1 22.8 64 -10.9 12.4
01:15 1027 30.33 856 25.28 -5.3 22.5 65 -10.9 12.4
01:20 1027 30.33 856 25.28 -5.5 22.1 66 -10.9 12.4
01:25 1027 30.33 856 25.28 -5.6 21.9 66 -10.9 12.3
01:30 1027 30.33 856 25.28 -5.6 21.9 66 -10.9 12.4
01:35 1027 30.33 856 25.28 -5.5 22.2 66 -10.9 12.5
01:40 1027 30.33 856 25.28 -5.3 22.5 66 -10.8 12.6
01:45 1027 30.33 856 25.28 -5.1 22.8 65 -10.7 12.7
01:50 1027 30.33 856 25.28 -5.1 22.9 64 -10.8 12.6
01:55 1027 30.33 856 25.28 -5.1 22.9 64 -10.9 12.4
02:00 1027 30.33 856 25.28 -4.9 23.2 63 -10.9 12.4
02:05 1027 30.33 856 25.28 -4.9 23.2 63 -10.9 12.5
02:10 1027 30.33 856 25.28 -5.1 22.8 64 -11 12.3
02:15 1027 30.33 856 25.28 -5.2 22.7 64 -11 12.2
02:20 1027 30.33 856 25.28 -5.2 22.6 64 -11 12.2
02:25 1027 30.33 856 25.28 -5.1 22.7 64 -11 12.2
02:30 1026 30.3 856 25.28 -5.1 22.9 63 -11 12.3
02:35 1026 30.3 856 25.28 -5 23.1 63 -10.9 12.3
02:40 1026 30.3 856 25.28 -4.9 23.2 62 -11 12.2
02:45 1026 30.3 855 25.25 -4.8 23.4 62 -10.9 12.3
02:50 1026 30.3 855 25.25 -4.9 23.1 63 -11 12.2
02:55 1026 30.3 855 25.25 -5.2 22.6 63 -11.1 12
03:00 1026 30.3 855 25.25 -5.3 22.4 64 -11.1 11.9
03:05 1026 30.3 855 25.25 -5.2 22.7 63 -11.1 12
03:10 1026 30.3 855 25.25 -5.1 22.8 63 -11.1 12
03:15 1026 30.3 855 25.25 -5.1 22.9 63 -11.1 12
03:20 1026 30.3 855 25.25 -5.1 22.8 63 -11.1 12.1
03:25 1026 30.3 855 25.25 -5.4 22.2 65 -11.1 12.1
03:30 1026 30.3 855 25.25 -5.6 22 65 -11.2 11.9
03:35 1026 30.3 855 25.25 -5.4 22.2 64 -11.2 11.8
03:40 1026 30.3 855 25.25 -5.2 22.7 63 -11.2 11.9
03:45 1025 30.27 855 25.25 -5.4 22.4 64 -11.2 11.9
03:50 1025 30.27 854 25.22 -5.7 21.8 65 -11.3 11.7
03:55 1025 30.27 854 25.22 -5.9 21.4 65 -11.4 11.5
04:00 1025 30.27 854 25.22 -5.8 21.5 65 -11.5 11.4
04:05 1025 30.27 854 25.22 -5.6 22 63 -11.5 11.4
04:10 1025 30.27 854 25.22 -5.6 22 63 -11.5 11.4
04:15 1025 30.27 854 25.22 -5.7 21.8 63 -11.6 11.1
04:20 1025 30.27 854 25.22 -5.7 21.8 63 -11.6 11.1
04:25 1025 30.27 854 25.22 -5.8 21.5 64 -11.6 11.1
04:30 1025 30.27 854 25.22 -6 21.2 64 -11.7 10.9
04:35 1025 30.27 854 25.22 -6 21.2 64 -11.7 10.9
04:40 1025 30.27 854 25.22 -6 21.2 63 -11.9 10.6
04:45 1025 30.27 854 25.22 -5.8 21.6 62 -12 10.5
04:50 1025 30.27 854 25.22 -5.3 22.4 59 -12.1 10.2
04:55 1025 30.27 854 25.22 -4.9 23.1 57 -12.2 10
05:00 1025 30.27 854 25.22 -4.8 23.4 56 -12.2 10.1
05:05 1025 30.27 854 25.22 -4.8 23.3 56 -12.3 9.8
05:10 1025 30.27 854 25.22 -5 23 57 -12.3 9.8
05:15 1024 30.24 854 25.22 -5.2 22.7 58 -12.2 10
05:20 1024 30.24 854 25.22 -5.4 22.3 60 -12 10.4
05:25 1024 30.24 854 25.22 -5.5 22 61 -12 10.4
05:30 1024 30.24 854 25.22 -5.5 22.1 61 -11.9 10.5
05:35 1024 30.24 854 25.22 -5.3 22.5 60 -11.9 10.5
05:40 1024 30.24 854 25.22 -5.1 22.7 58 -12.2 10
05:45 1024 30.24 853 25.19 -4.8 23.3 57 -12.1 10.1
05:50 1024 30.24 853 25.19 -4.8 23.4 57 -12.1 10.2
05:55 1024 30.24 853 25.19 -4.9 23.1 57 -12.2 10.1
06:00 1024 30.24 853 25.19 -5.3 22.4 59 -12.2 10.1
06:05 1024 30.24 853 25.19 -5.4 22.3 58 -12.4 9.7
06:10 1024 30.24 853 25.19 -5.1 22.9 59 -12 10.5
06:15 1024 30.24 853 25.19 -4.7 23.5 57 -12 10.4
06:20 1024 30.24 853 25.19 -4.6 23.7 58 -11.7 10.9
06:25 1024 30.24 853 25.19 -4.7 23.5 57 -12 10.4
06:30 1024 30.24 853 25.19 -4.7 23.5 56 -12.1 10.1
06:35 1024 30.24 853 25.19 -4.9 23.1 57 -12.3 9.9
06:40 1024 30.24 853 25.19 -5 23.1 57 -12.3 9.8
06:45 1024 30.24 853 25.19 -5 23 56 -12.4 9.7
06:50 1024 30.24 853 25.19 -5 22.9 57 -12.3 9.8
06:55 1024 30.24 853 25.19 -5.7 21.8 60 -12.2 10.1
07:00 1024 30.24 853 25.19 -5.7 21.8 63 -11.7 10.9
07:05 1024 30.24 853 25.19 -5.7 21.8 63 -11.6 11.2
07:10 1024 30.24 853 25.19 -5.8 21.6 64 -11.5 11.2
07:15 1024 30.24 853 25.19 -5.9 21.5 64 -11.5 11.2
07:20 1024 30.24 853 25.19 -6 21.1 64 -11.7 10.9
07:25 1024 30.24 853 25.19 -6 21.2 64 -11.8 10.8
07:30 1024 30.24 853 25.19 -5.9 21.5 63 -11.7 10.9
07:35 1024 30.24 853 25.19 -6.4 20.6 65 -11.8 10.7
07:40 1024 30.24 853 25.19 -6.7 19.9 67 -11.9 10.6
07:45 1024 30.24 853 25.19 -6.9 19.5 68 -11.8 10.7
07:50 1024 30.24 853 25.19 -6.9 19.5 69 -11.8 10.8
07:55 1024 30.24 853 25.19 -6.5 20.3 67 -11.6 11.2
08:00 1024 30.24 853 25.19 -6.1 21.1 66 -11.4 11.4
08:05 1024 30.24 853 25.19 -6.2 20.9 67 -11.4 11.5
08:10 1024 30.24 853 25.19 -6.2 20.8 67 -11.3 11.6
08:15 1024 30.24 853 25.19 -6.2 20.9 68 -11.3 11.7
08:20 1024 30.24 853 25.19 -6.1 21.1 67 -11.2 11.8
08:25 1024 30.24 853 25.19 -5.8 21.5 67 -11 12.1
08:30 1024 30.24 853 25.19 -5.6 22 67 -10.8 12.5
08:35 1024 30.24 853 25.19 -5.1 22.7 65 -10.7 12.7
08:40 1024 30.24 853 25.19 -4.7 23.6 63 -10.7 12.8
08:45 1024 30.24 853 25.19 -4.1 24.5 59 -11.1 12
08:50 1023 30.21 853 25.19 -3.7 25.3 57 -11.2 11.9
08:55 1023 30.21 853 25.19 -3.3 26 55 -11.1 12
09:00 1023 30.21 853 25.19 -2.9 26.7 52 -11.5 11.3
09:05 1023 30.21 852 25.16 -2.7 27.2 50 -11.7 10.9
09:10 1023 30.21 852 25.16 -2.8 27 52 -11.4 11.5
09:15 1023 30.21 852 25.16 -2.8 27 52 -11.3 11.7
09:20 1023 30.21 852 25.16 -2.6 27.4 52 -11 12.2
09:25 1023 30.21 853 25.19 -2 28.3 52 -10.7 12.7
09:30 1023 30.21 852 25.16 -1.8 28.7 52 -10.5 13.2
09:35 1023 30.21 852 25.16 -1.8 28.7 50 -11 12.2
09:40 1023 30.21 852 25.16 -1.3 29.7 49 -10.8 12.6
09:45 1023 30.21 852 25.16 -0.7 30.7 46 -10.9 12.4
09:50 1023 30.21 852 25.16 -0.1 31.8 45 -10.6 12.9
09:55 1023 30.21 852 25.16 0.5 32.9 40 -11.6 11.1
10:00 1023 30.21 852 25.16 0.5 32.9 40 -11.6 11.2
10:05 1023 30.21 852 25.16 1.1 34 37 -11.9 10.6
10:10 1023 30.21 852 25.16 1.6 34.8 36 -11.9 10.6
10:15 1023 30.21 852 25.16 1.9 35.5 35 -12.1 10.3
10:20 1023 30.21 852 25.16 2.1 35.8 34 -12.4 9.7
10:25 1023 30.21 852 25.16 2.2 35.9 33 -12.7 9.1
10:30 1023 30.21 852 25.16 2.6 36.6 31 -12.8 8.9
10:35 1023 30.21 852 25.16 2 35.5 32 -13.1 8.4
10:40 1023 30.21 852 25.16 2.2 36 33 -12.6 9.4
10:45 1023 30.21 852 25.16 3.1 37.6 32 -11.9 10.5
10:50 1023 30.21 852 25.16 3 37.4 32 -12 10.4
10:55 1023 30.21 852 25.16 2.7 36.9 33 -11.9 10.6
11:00 1023 30.21 852 25.16 2.7 36.9 34 -11.7 10.9
11:05 1023 30.21 852 25.16 3.8 38.9 32 -11.5 11.3
11:10 1023 30.21 852 25.16 4.8 40.6 30 -11.6 11.2
11:15 1023 30.21 852 25.16 4.8 40.6 30 -11.2 11.8
11:20 1022 30.18 852 25.16 4.2 39.6 31 -11.4 11.5
11:25 1022 30.18 852 25.16 3.8 38.8 32 -11.5 11.2
11:30 1022 30.18 852 25.16 3.5 38.3 34 -10.9 12.3
11:35 1022 30.18 852 25.16 3.7 38.6 34 -10.8 12.5
11:40 1022 30.18 851 25.13 3.8 38.9 34 -10.6 13
11:45 1022 30.18 851 25.13 4.4 39.8 33 -10.6 12.9
11:50 1022 30.18 851 25.13 4.4 39.8 33 -10.6 13
11:55 1022 30.18 851 25.13 4.7 40.5 32 -10.7 12.8
12:00 1022 30.18 851 25.13 5.5 42 29 -11 12.1
12:05 1022 30.18 851 25.13 5.7 42.3 30 -10.7 12.7
12:10 1022 30.18 851 25.13 5.4 41.6 32 -10 13.9
12:15 1022 30.18 851 25.13 5.4 41.8 29 -11.1 12
12:20 1022 30.18 851 25.13 5.9 42.7 28 -11.3 11.6
12:25 1022 30.18 851 25.13 6.2 43.2 27 -11.3 11.6
12:30 1022 30.18 851 25.13 6 42.9 29 -10.8 12.5
12:35 1022 30.18 851 25.13 6.7 44.1 28 -10.5 13.1
12:40 1022 30.18 851 25.13 7.3 45.2 27 -10.7 12.8
12:45 1021 30.15 851 25.13 7.3 45.1 26 -10.9 12.3
12:50 1021 30.15 851 25.13 7.8 46 26 -10.8 12.5
12:55 1021 30.15 850 25.1 7.7 45.8 25 -11.1 12
13:00 1021 30.15 850 25.1 7.1 44.8 26 -11 12.2
13:05 1021 30.15 850 25.1 6.4 43.6 27 -11.1 12
13:10 1021 30.15 850 25.1 6.5 43.8 29 -10.3 13.4
13:15 1021 30.15 850 25.1 7 44.6 28 -10.4 13.3
13:20 1021 30.15 850 25.1 7.5 45.5 28 -10 14.1
13:25 1021 30.15 850 25.1 7.2 44.9 29 -9.7 14.5
13:30 1021 30.15 850 25.1 7.6 45.7 28 -9.8 14.3
13:35 1020 30.12 850 25.1 7.5 45.5 28 -9.8 14.4
13:40 1020 30.12 849 25.07 7.8 46 28 -9.5 15
13:45 1020 30.12 849 25.07 7.9 46.3 28 -9.3 15.3
13:50 1020 30.12 849 25.07 8.3 46.9 27 -9.4 15
13:55 1020 30.12 849 25.07 9.2 48.5 25 -9.6 14.7
14:00 1020 30.12 849 25.07 9.7 49.4 24 -10 14
14:05 1020 30.12 849 25.07 8.8 47.8 25 -10.1 13.9
14:10 1020 30.12 849 25.07 8.2 46.7 26 -10.2 13.6
14:15 1020 30.12 849 25.07 8.4 47 26 -10.2 13.7
14:20 1019 30.09 849 25.07 9.5 49 24 -9.9 14.2
14:25 1019 30.09 848 25.04 9.5 49 24 -9.9 14.1
14:30 1019 30.09 848 25.04 10 49.9 25 -9.4 15.1
14:35 1019 30.09 848 25.04 10.2 50.3 23 -9.8 14.4
14:40 1019 30.09 848 25.04 9.5 49 25 -9.6 14.7
14:45 1019 30.09 848 25.04 10.1 50.3 24 -9.4 15
14:50 1019 30.09 848 25.04 10.8 51.4 24 -9.2 15.4
14:55 1019 30.09 848 25.04 10.1 50.2 24 -9.4 15.1
15:00 1019 30.09 848 25.04 8.5 47.3 26 -9.9 14.1
15:05 1019 30.09 848 25.04 8.3 47 26 -10 14
15:10 1018 30.06 848 25.04 8.2 46.8 26 -10 14
15:15 1018 30.06 848 25.04 8.2 46.8 26 -10 14.1
15:20 1018 30.06 848 25.04 8.4 47.1 26 -10 14
15:25 1018 30.06 847 25.01 8.4 47.2 26 -10.1 13.8
15:30 1018 30.06 847 25.01 8.5 47.4 26 -10 13.9
15:35 1018 30.06 847 25.01 9.1 48.3 25 -10 14
15:40 1018 30.06 847 25.01 10.1 50.1 24 -9.5 14.9
15:45 1018 30.06 847 25.01 10.1 50.3 25 -9.3 15.3
15:50 1018 30.06 847 25.01 10.1 50.2 27 -8.1 17.5
15:55 1018 30.06 847 25.01 10.2 50.3 27 -8 17.5
16:00 1018 30.06 847 25.01 10 49.9 26 -8.5 16.7
16:05 1018 30.06 847 25.01 9.5 49.1 27 -8.5 16.7
16:10 1017 30.03 847 25.01 9.3 48.7 28 -8.4 16.8
16:15 1017 30.03 847 25.01 9.7 49.5 27 -8.2 17.2
16:20 1017 30.03 847 25.01 10 50 27 -8.3 17
16:25 1017 30.03 847 25.01 9.8 49.6 28 -7.9 17.8
16:30 1017 30.03 846 24.98 9.9 49.8 29 -7.4 18.7
16:35 1017 30.03 846 24.98 10.3 50.5 25 -9 15.9
16:40 1017 30.03 846 24.98 10.6 51 24 -9.3 15.2
16:45 1017 30.03 846 24.98 10.8 51.4 24 -9.1 15.6
16:50 1017 30.03 846 24.98 11.4 52.4 23 -8.9 16
16:55 1017 30.03 846 24.98 11.3 52.3 22 -9.8 14.4
17:00 1017 30.03 846 24.98 11.7 53 21 -10.1 13.9
17:05 1017 30.03 846 24.98 11.5 52.8 23 -9 15.8
17:10 1017 30.03 846 24.98 11.3 52.4 22 -9.4 15.1
17:15 1017 30.03 846 24.98 11.4 52.5 22 -9.6 14.8
17:20 1016 30 846 24.98 11.3 52.3 23 -8.9 15.9
17:25 1016 30 846 24.98 11.2 52.2 23 -9.3 15.3
17:30 1016 30 846 24.98 11.1 51.9 24 -8.8 16.2
17:35 1016 30 845 24.95 11 51.7 24 -8.6 16.5
17:40 1016 30 845 24.95 11.1 52 23 -9.1 15.6
17:45 1016 30 845 24.95 10.9 51.7 23 -9.2 15.4
17:50 1016 30 845 24.95 10.9 51.6 24 -9 15.8
17:55 1016 30 845 24.95 11 51.8 22 -10.2 13.7
18:00 1016 30 845 24.95 11 51.7 24 -8.6 16.5
18:05 1016 30 845 24.95 10.7 51.3 23 -9.8 14.3
18:10 1016 30 845 24.95 10.6 51 24 -9.2 15.4
18:15 1016 30 845 24.95 10.6 51 24 -9 15.8
18:20 1016 30 845 24.95 10.5 50.8 25 -8.9 16
18:25 1016 30 845 24.95 10.2 50.4 26 -8.7 16.4
18:30 1016 30 845 24.95 10.2 50.3 25 -9.2 15.4
18:35 1016 30 845 24.95 10 50.1 25 -9.2 15.5
18:40 1016 30 845 24.95 9.9 49.8 24 -9.8 14.3
18:45 1015 29.97 845 24.95 9.9 49.8 25 -9.3 15.2
18:50 1015 29.97 845 24.95 9.8 49.7 24 -9.7 14.5
18:55 1015 29.97 845 24.95 9.7 49.4 26 -9.2 15.5
19:00 1015 29.97 845 24.95 9.2 48.6 27 -8.9 15.9
19:05 1015 29.97 845 24.95 9.2 48.5 27 -9.1 15.6
19:10 1015 29.97 844 24.92 9.1 48.4 27 -9 15.8
19:15 1015 29.97 844 24.92 9 48.2 27 -8.8 16.2
19:20 1015 29.97 844 24.92 9.1 48.3 26 -9.3 15.2
19:25 1015 29.97 844 24.92 9.1 48.4 27 -9.1 15.6
19:30 1015 29.97 844 24.92 9.1 48.4 25 -9.7 14.5
19:35 1015 29.97 844 24.92 9 48.1 27 -9.2 15.5
19:40 1015 29.97 844 24.92 8.5 47.4 28 -8.8 16.2
19:45 1015 29.97 844 24.92 8.4 47.1 28 -8.8 16.1
19:50 1015 29.97 844 24.92 8.2 46.7 29 -8.8 16.2
19:55 1015 29.97 844 24.92 8 46.4 30 -8.6 16.6
20:00 1015 29.97 844 24.92 7.8 46.1 30 -8.6 16.5
20:05 1015 29.97 844 24.92 7.8 46 31 -8.5 16.7
20:10 1015 29.97 844 24.92 8 46.4 28 -9.5 14.8
20:15 1015 29.97 844 24.92 8 46.4 30 -8.6 16.4
20:20 1015 29.97 844 24.92 7.7 45.9 30 -8.6 16.5
20:25 1015 29.97 844 24.92 7.5 45.6 31 -8.5 16.7
20:30 1015 29.97 844 24.92 7.5 45.4 30 -8.9 15.9
20:35 1015 29.97 844 24.92 7.5 45.5 29 -9.3 15.2
20:40 1015 29.97 844 24.92 7.7 45.9 28 -9.8 14.4
20:45 1015 29.97 845 24.95 7.8 46.1 28 -9.4 15.1
20:50 1015 29.97 845 24.95 7.6 45.7 30 -8.8 16.1
20:55 1015 29.97 845 24.95 7.6 45.6 29 -9.5 14.9
21:00 1015 29.97 845 24.95 7.7 45.9 29 -9.2 15.4
21:05 1015 29.97 845 24.95 7.7 45.8 28 -9.5 14.9
21:10 1015 29.97 845 24.95 7.7 45.8 30 -8.9 16
21:15 1016 30 845 24.95 7.5 45.4 31 -8.7 16.4
21:20 1015 29.97 845 24.95 7.3 45.2 31 -8.6 16.5
21:25 1015 29.97 845 24.95 7.3 45.1 31 -8.7 16.4
21:30 1015 29.97 845 24.95 7.3 45.1 30 -9.2 15.4
21:35 1015 29.97 845 24.95 7.4 45.4 30 -9.2 15.5
21:40 1015 29.97 845 24.95 7.5 45.4 30 -9.1 15.7
21:45 1015 29.97 844 24.92 7.5 45.5 30 -9.2 15.5
21:50 1015 29.97 844 24.92 7.6 45.7 29 -9.2 15.5
21:55 1015 29.97 844 24.92 7.6 45.7 30 -9 15.8
22:00 1015 29.97 844 24.92 7.5 45.4 31 -8.7 16.3
22:05 1015 29.97 844 24.92 7.3 45.2 31 -8.5 16.7
22:10 1015 29.97 844 24.92 7.1 44.8 33 -8.3 17.1
22:15 1015 29.97 844 24.92 6.8 44.2 33 -8.3 17
22:20 1015 29.97 844 24.92 6.7 44.1 34 -8.2 17.2
22:25 1015 29.97 844 24.92 6.6 43.9 33 -8.4 16.9
22:30 1015 29.97 844 24.92 6.7 44 33 -8.3 17.1
22:35 1015 29.97 844 24.92 6.9 44.4 33 -8.5 16.8
22:40 1015 29.97 844 24.92 7 44.7 32 -8.4 16.9
22:45 1015 29.97 844 24.92 7 44.7 33 -8.2 17.2
22:50 1015 29.97 844 24.92 7.1 44.8 33 -8.2 17.3
22:55 1015 29.97 844 24.92 7.2 44.9 33 -7.9 17.7
23:00 1015 29.97 844 24.92 7.2 44.9 34 -7.7 18.2
23:05 1015 29.97 844 24.92 7 44.6 34 -7.7 18.2
23:10 1014 29.94 844 24.92 7 44.7 34 -7.7 18.1
23:15 1014 29.94 844 24.92 7 44.6 34 -7.7 18.2
23:20 1014 29.94 844 24.92 6.8 44.3 35 -7.6 18.3
23:25 1014 29.94 844 24.92 6.9 44.4 35 -7.5 18.5
23:30 1014 29.94 843 24.89 6.9 44.5 35 -7.7 18.2
23:35 1014 29.94 843 24.89 7.1 44.8 35 -7.3 18.8
23:40 1014 29.94 843 24.89 7 44.6 34 -7.6 18.3
23:45 1014 29.94 843 24.89 7.3 45.1 34 -7.6 18.3
23:50 1014 29.94 843 24.89 7.3 45.1 33 -7.8 17.9
23:55 1014 29.94 843 24.89 7.2 45 34 -7.7 18.2
24:00 1014 29.94 843 24.89 7.2 45 33 -8.1 17.5